createdAt,value
2019-04-23T00:00:29.346Z,51.6396
2019-04-23T00:01:58.376Z,51.3222
2019-04-23T00:02:52.427Z,51.1910
2019-04-23T00:03:51.609Z,50.8598
2019-04-23T00:04:59.736Z,50.8690
2019-04-23T00:06:19.028Z,50.8339
2019-04-23T00:07:44.349Z,51.0674
2019-04-23T00:08:39.597Z,51.1040
2019-04-23T00:09:39.877Z,51.3130
2019-04-23T00:10:43.036Z,51.3100
2019-04-23T00:11:51.414Z,51.4611
2019-04-23T00:14:15.162Z,51.6518
2019-04-23T00:15:35.632Z,51.9219
2019-04-23T00:16:26.492Z,52.1202
2019-04-23T00:17:37.351Z,52.0012
2019-04-23T00:18:42.658Z,51.4870
2019-04-23T00:19:50.228Z,51.4916
2019-04-23T00:20:57.846Z,51.4458
2019-04-23T00:22:11.000Z,51.7433
2019-04-23T00:23:11.056Z,52.2484
2019-04-23T00:24:28.215Z,52.3018
2019-04-23T00:25:45.026Z,52.5963
2019-04-23T00:26:36.600Z,52.9656
2019-04-23T00:27:51.825Z,53.4157
2019-04-23T00:28:58.892Z,53.6492
2019-04-23T00:31:13.320Z,54.0841
2019-04-23T00:32:23.139Z,54.3389
2019-04-23T00:33:25.607Z,54.4762
2019-04-23T00:34:36.152Z,54.6654
2019-04-23T00:35:44.079Z,54.9615
2019-04-23T00:36:51.509Z,55.1781
2019-04-23T00:37:59.981Z,55.4116
2019-04-23T00:39:06.280Z,55.2728
2019-04-23T00:40:10.836Z,55.6252
2019-04-23T00:41:25.352Z,55.4070
2019-04-23T00:42:36.797Z,55.0210
2019-04-23T00:43:35.924Z,55.0362
2019-04-23T00:44:46.263Z,54.7707
2019-04-23T00:45:53.526Z,55.0729
2019-04-23T00:47:06.977Z,55.0851
2019-04-23T00:48:17.086Z,54.9844
2019-04-23T00:49:21.222Z,55.3414
2019-04-23T00:50:48.011Z,55.4971
2019-04-23T00:51:33.093Z,55.7259
2019-04-23T00:52:38.884Z,56.1242
2019-04-23T00:53:43.917Z,56.6278
2019-04-23T00:55:04.366Z,56.5408
2019-04-23T00:56:19.032Z,56.5133
2019-04-23T00:57:22.592Z,56.7483
2019-04-23T00:59:27.828Z,56.7666
2019-04-23T01:00:41.973Z,56.7559
2019-04-23T01:01:49.581Z,57.1099
2019-04-23T01:02:53.219Z,57.1084
2019-04-23T01:04:02.251Z,56.7742
2019-04-23T01:05:14.834Z,56.8658
2019-04-23T01:06:19.356Z,56.4950
2019-04-23T01:07:24.275Z,56.6110
2019-04-23T01:08:31.764Z,56.5316
2019-04-23T01:09:49.244Z,56.6522
2019-04-23T01:10:52.282Z,56.7422
2019-04-23T01:12:03.088Z,57.0077
2019-04-23T01:13:08.868Z,56.8765
2019-04-23T01:14:15.803Z,56.8444
2019-04-23T01:15:26.254Z,57.1511
2019-04-23T01:16:28.278Z,57.2061
2019-04-23T01:17:39.852Z,57.1466
2019-04-23T01:19:49.515Z,57.2091
2019-04-23T01:20:53.521Z,57.2366
2019-04-23T01:21:47.512Z,57.0459
2019-04-23T01:22:50.907Z,57.0123
2019-04-23T01:23:59.833Z,56.5866
2019-04-23T01:25:11.041Z,56.6064
2019-04-23T01:26:30.855Z,56.6156
2019-04-23T01:27:55.836Z,56.3531
2019-04-23T01:28:57.415Z,56.3775
2019-04-23T01:30:04.742Z,56.3806
2019-04-23T01:31:09.236Z,56.3806
2019-04-23T01:32:18.753Z,55.9976
2019-04-23T01:33:29.628Z,56.1944
2019-04-23T01:34:31.282Z,56.6369
2019-04-23T01:35:36.426Z,56.9482
2019-04-23T01:36:46.458Z,57.1878
2019-04-23T01:37:55.675Z,57.4838
2019-04-23T01:39:00.239Z,57.6211
2019-04-23T01:40:12.135Z,57.6638
2019-04-23T01:41:20.204Z,57.8561
2019-04-23T01:42:38.876Z,57.8912
2019-04-23T01:43:36.534Z,57.5677
2019-04-23T01:44:50.390Z,57.9416
2019-04-23T01:45:40.944Z,57.8180
2019-04-23T01:47:00.862Z,57.3144
2019-04-23T01:48:17.875Z,57.6135
2019-04-23T01:49:18.366Z,57.2656
2019-04-23T01:51:34.460Z,57.4029
2019-04-23T01:52:50.567Z,57.7401
2019-04-23T01:53:49.577Z,57.8286
2019-04-23T01:54:54.958Z,58.1949
2019-04-23T01:56:20.392Z,58.3764
2019-04-23T01:57:16.783Z,58.2864
2019-04-23T01:58:37.039Z,58.6236
2019-04-23T01:59:24.501Z,58.9502
2019-04-23T02:00:35.563Z,58.7701
2019-04-23T02:01:47.589Z,58.7991
2019-04-23T02:02:57.610Z,59.0494
2019-04-23T02:04:03.557Z,59.0875
2019-04-23T02:06:16.646Z,58.5885
2019-04-23T02:07:29.564Z,58.7579
2019-04-23T02:08:28.364Z,58.6419
2019-04-23T02:09:43.490Z,58.2223
2019-04-23T02:10:53.633Z,57.7874
2019-04-23T02:11:57.759Z,57.8286
2019-04-23T02:15:24.994Z,56.8750
2019-04-23T02:16:32.776Z,56.8521
2019-04-23T02:17:38.639Z,56.6415
2019-04-23T02:18:44.152Z,56.8704
2019-04-23T02:19:51.753Z,56.8978
2019-04-23T02:20:59.503Z,57.0367
2019-04-23T02:22:05.022Z,57.1511
2019-04-23T02:23:19.878Z,57.6272
2019-04-23T02:24:24.738Z,58.1949
2019-04-23T02:26:38.476Z,57.5998
2019-04-23T02:27:54.414Z,57.6226
2019-04-23T02:30:15.529Z,57.9507
2019-04-23T02:34:51.571Z,57.7508
2019-04-23T02:35:55.771Z,57.9004
2019-04-23T02:37:03.852Z,57.6089
2019-04-23T02:39:00.967Z,56.2341
2019-04-23T02:40:35.375Z,56.0159
2019-04-23T02:41:41.594Z,55.7397
2019-04-23T02:42:55.880Z,55.7412
2019-04-23T02:43:35.508Z,56.0296
2019-04-23T02:44:56.285Z,56.0937
2019-04-23T02:47:29.711Z,56.2310
2019-04-23T02:49:26.955Z,56.7102
2019-04-23T02:52:48.811Z,56.8124
2019-04-23T02:54:04.644Z,56.5698
2019-04-23T02:55:08.723Z,56.3958
2019-04-23T02:56:28.878Z,56.9039
2019-04-23T02:57:20.134Z,56.5057
2019-04-23T02:59:53.785Z,56.6964
2019-04-23T03:01:06.418Z,56.7620
2019-04-23T03:05:38.038Z,56.1013
2019-04-23T03:07:41.007Z,56.1074
2019-04-23T03:09:51.725Z,55.9457
2019-04-23T03:11:20.714Z,56.0204
2019-04-23T03:12:24.888Z,55.6435
2019-04-23T03:16:48.191Z,54.9844
2019-04-23T03:17:49.276Z,55.1461
2019-04-23T03:18:57.597Z,55.3384
2019-04-23T03:20:11.189Z,55.2132
2019-04-23T03:22:14.738Z,54.7097
2019-04-23T03:23:34.530Z,54.0887
2019-04-23T03:24:45.833Z,53.8079
2019-04-23T03:25:35.869Z,53.6477
2019-04-23T03:29:15.858Z,53.5027
2019-04-23T03:32:48.379Z,51.8807
2019-04-23T03:34:42.467Z,51.9310
2019-04-23T03:38:18.878Z,52.2652
2019-04-23T03:39:18.717Z,52.4819
2019-04-23T03:40:43.137Z,52.5353
2019-04-23T03:42:43.102Z,52.2194
2019-04-23T03:47:18.543Z,51.9783
2019-04-23T03:48:28.672Z,52.3339
2019-04-23T03:49:32.853Z,52.6085
2019-04-23T03:50:36.015Z,52.4895
2019-04-23T03:51:52.269Z,52.0928
2019-04-23T03:52:44.674Z,52.0821
2019-04-23T03:55:10.264Z,52.3812
2019-04-23T03:56:26.552Z,52.7794
2019-04-23T03:57:26.945Z,52.7916
2019-04-23T04:01:07.179Z,52.2118
2019-04-23T04:03:27.016Z,52.6406
2019-04-23T04:05:31.406Z,52.8969
2019-04-23T04:08:50.727Z,53.1853
2019-04-23T04:11:25.708Z,53.6950
2019-04-23T04:12:19.139Z,53.3364
2019-04-23T04:13:22.222Z,53.5897
2019-04-23T04:15:53.327Z,53.9956
2019-04-23T04:16:51.069Z,53.9239
2019-04-23T04:18:03.849Z,53.8506
2019-04-23T04:21:28.138Z,54.2336
2019-04-23T04:22:37.490Z,54.0566
2019-04-23T04:23:37.767Z,53.8140
2019-04-23T04:25:08.803Z,54.0276
2019-04-23T04:25:47.681Z,54.0322
2019-04-23T04:29:11.664Z,54.2535
2019-04-23T04:30:21.578Z,54.5235
2019-04-23T04:31:37.438Z,53.5393
2019-04-23T04:32:42.814Z,53.3150
2019-04-23T04:35:14.130Z,53.7865
2019-04-23T04:36:09.496Z,53.6843
2019-04-23T04:38:34.883Z,53.7530
2019-04-23T04:39:26.636Z,53.8674
2019-04-23T04:40:45.670Z,54.3175
2019-04-23T04:41:44.479Z,54.3618
2019-04-23T04:43:02.015Z,54.3938
2019-04-23T04:44:04.909Z,54.7707
2019-04-23T04:45:13.631Z,54.8287
2019-04-23T04:46:21.203Z,54.8165
2019-04-23T04:47:33.888Z,54.9310
2019-04-23T04:49:48.611Z,54.8608
2019-04-23T04:52:03.167Z,55.3521
2019-04-23T04:53:09.892Z,55.2499
2019-04-23T04:54:21.516Z,55.3964
2019-04-23T04:55:21.515Z,55.2560
2019-04-23T04:57:37.241Z,55.1400
2019-04-23T05:05:55.531Z,55.6847
2019-04-23T05:06:46.484Z,55.8312
2019-04-23T05:08:56.614Z,55.6115
2019-04-23T05:14:35.415Z,55.5016
2019-04-23T05:15:39.075Z,55.6710
2019-04-23T05:18:00.307Z,55.9503
2019-04-23T05:22:26.768Z,57.0047
2019-04-23T05:23:33.438Z,57.5982
2019-04-23T05:25:44.742Z,58.3810
2019-04-23T05:26:53.369Z,58.0301
2019-04-23T05:30:22.610Z,57.5219
2019-04-23T05:31:23.261Z,57.5586
2019-04-23T05:32:36.737Z,57.7447
2019-04-23T05:33:46.471Z,57.1542
2019-04-23T05:34:48.321Z,57.3846
2019-04-23T05:36:22.849Z,57.1359
2019-04-23T05:37:06.463Z,57.5631
2019-04-23T05:38:29.200Z,58.0102
2019-04-23T05:39:31.314Z,57.9202
2019-04-23T05:40:37.953Z,58.2223
2019-04-23T05:42:46.842Z,58.1247
2019-04-23T05:45:00.595Z,57.2244
2019-04-23T05:46:17.957Z,57.3251
2019-04-23T05:47:25.473Z,57.4289
2019-04-23T05:48:23.370Z,57.5998
2019-04-23T05:49:31.664Z,57.5570
2019-04-23T05:50:50.577Z,56.9543
2019-04-23T05:51:57.680Z,56.7605
2019-04-23T05:53:05.915Z,57.1649
2019-04-23T05:54:09.118Z,57.1878
2019-04-23T05:55:13.658Z,56.9223
2019-04-23T05:56:24.269Z,56.6552
2019-04-23T05:57:40.372Z,56.2066
2019-04-23T05:58:43.706Z,56.4950
2019-04-23T05:59:51.654Z,56.4401
2019-04-23T06:01:11.430Z,56.3272
2019-04-23T06:02:18.247Z,56.1196
2019-04-23T06:03:16.003Z,55.9503
2019-04-23T06:04:27.099Z,55.9915
2019-04-23T06:05:34.266Z,56.1700
2019-04-23T06:07:49.417Z,55.2361
2019-04-23T06:11:16.989Z,55.5535
2019-04-23T06:12:13.568Z,55.7168
2019-04-23T06:13:26.345Z,55.9243
2019-04-23T06:14:41.030Z,55.8099
2019-04-23T06:15:57.783Z,55.7855
2019-04-23T06:17:02.133Z,56.0967
2019-04-23T06:18:02.245Z,55.9411
2019-04-23T06:20:24.978Z,56.4675
2019-04-23T06:21:25.264Z,56.4950
2019-04-23T06:22:35.211Z,56.0937
2019-04-23T06:23:43.677Z,55.4162
2019-04-23T06:24:45.153Z,54.5739
2019-04-23T06:27:06.747Z,54.1711
2019-04-23T06:28:14.518Z,54.5220
2019-04-23T06:30:34.251Z,54.1695
2019-04-23T06:31:40.879Z,53.8186
2019-04-23T06:32:44.763Z,53.9376
2019-04-23T06:33:54.541Z,54.3587
2019-04-23T06:34:58.167Z,53.5027
2019-04-23T06:37:22.172Z,53.2967
2019-04-23T06:38:46.098Z,53.6568
2019-04-23T06:39:39.639Z,53.8781
2019-04-23T06:40:44.949Z,54.3618
2019-04-23T06:41:52.776Z,54.8928
2019-04-23T06:43:01.274Z,55.5749
2019-04-23T06:45:06.263Z,56.3043
2019-04-23T06:46:20.142Z,56.5271
2019-04-23T06:47:27.739Z,54.7463
2019-04-23T06:48:34.870Z,54.9432
2019-04-23T06:49:44.172Z,54.5144
2019-04-23T06:50:59.265Z,54.5144
2019-04-23T06:53:08.129Z,55.1461
2019-04-23T06:54:19.068Z,54.9432
2019-04-23T06:55:25.499Z,54.9706
2019-04-23T06:56:37.491Z,55.6588
2019-04-23T06:57:38.185Z,55.3780
2019-04-23T06:58:43.259Z,55.3506
2019-04-23T06:59:59.195Z,55.2102
2019-04-23T07:02:17.084Z,53.9742
2019-04-23T07:03:23.277Z,53.7301
2019-04-23T07:05:40.938Z,53.7713
2019-04-23T07:06:47.187Z,54.5373
2019-04-23T07:07:58.369Z,54.7616
2019-04-23T07:09:07.867Z,54.4350
2019-04-23T07:10:03.945Z,54.8241
2019-04-23T07:11:23.615Z,53.7682
2019-04-23T07:12:21.977Z,53.6583
2019-04-23T07:13:45.001Z,53.2906
2019-04-23T07:14:47.678Z,53.4371
2019-04-23T07:16:52.559Z,54.1878
2019-04-23T07:18:04.047Z,53.9956
2019-04-23T07:19:18.576Z,53.6477
2019-04-23T07:20:21.565Z,53.9879
2019-04-23T07:22:46.879Z,53.8918
2019-04-23T07:23:53.884Z,53.5439
2019-04-23T07:24:57.590Z,53.8003
2019-04-23T07:26:09.308Z,53.7453
2019-04-23T07:27:03.270Z,54.0841
2019-04-23T07:28:18.020Z,54.0337
2019-04-23T07:29:25.343Z,53.9635
2019-04-23T07:31:46.040Z,53.0571
2019-04-23T07:32:49.598Z,53.2967
2019-04-23T07:34:01.061Z,53.4966
2019-04-23T07:35:10.443Z,53.5256
2019-04-23T07:36:17.566Z,53.0770
2019-04-23T07:37:19.004Z,53.1029
2019-04-23T07:38:41.711Z,52.5444
2019-04-23T07:39:45.653Z,52.9564
2019-04-23T07:40:41.126Z,52.6909
2019-04-23T07:41:56.815Z,53.0388
2019-04-23T07:43:03.442Z,53.3776
2019-04-23T07:44:12.822Z,52.9427
2019-04-23T07:45:19.320Z,53.2677
2019-04-23T07:46:55.679Z,53.5897
2019-04-23T07:47:33.704Z,53.3928
2019-04-23T07:48:34.401Z,53.4112
2019-04-23T07:50:01.844Z,53.3516
2019-04-23T07:50:55.630Z,53.3562
2019-04-23T07:52:11.004Z,53.4569
2019-04-23T07:54:22.755Z,53.7758
2019-04-23T07:55:34.564Z,53.8125
2019-04-23T07:56:37.288Z,53.9544
2019-04-23T07:57:52.124Z,53.9055
2019-04-23T07:58:44.765Z,54.1436
2019-04-23T08:00:02.417Z,53.1716
2019-04-23T08:01:06.931Z,53.2052
2019-04-23T08:02:23.473Z,53.2952
2019-04-23T08:03:27.359Z,52.8573
2019-04-23T08:04:39.441Z,53.3104
2019-04-23T08:05:38.693Z,53.9101
2019-04-23T08:06:46.434Z,53.4279
2019-04-23T08:07:58.779Z,53.8079
2019-04-23T08:09:02.344Z,53.7911
2019-04-23T08:10:18.914Z,53.2631
2019-04-23T08:11:33.210Z,53.0037
2019-04-23T08:12:31.535Z,53.1029
2019-04-23T08:13:42.042Z,52.9152
2019-04-23T08:14:48.146Z,52.4773
2019-04-23T08:15:53.932Z,52.6558
2019-04-23T08:17:02.077Z,52.6772
2019-04-23T08:18:13.689Z,52.8618
2019-04-23T08:19:15.445Z,52.3751
2019-04-23T08:20:32.286Z,52.6726
2019-04-23T08:22:40.643Z,52.2606
2019-04-23T08:23:49.120Z,51.8822
2019-04-23T08:25:12.833Z,52.1416
2019-04-23T08:26:13.828Z,52.4392
2019-04-23T08:27:12.922Z,52.0790
2019-04-23T08:28:34.032Z,52.1614
2019-04-23T08:30:33.305Z,52.0134
2019-04-23T08:31:52.775Z,51.9371
2019-04-23T08:32:52.136Z,52.2072
2019-04-23T08:34:05.758Z,52.2835
2019-04-23T08:35:06.377Z,51.5572
2019-04-23T08:36:23.746Z,51.9966
2019-04-23T08:37:36.034Z,51.6121
2019-04-23T08:40:57.533Z,52.0729
2019-04-23T08:43:07.531Z,51.0445
2019-04-23T08:44:23.977Z,50.9514
2019-04-23T08:46:33.049Z,51.1910
2019-04-23T08:47:37.749Z,50.9331
2019-04-23T08:50:09.591Z,50.6645
2019-04-23T08:50:57.917Z,50.6050
2019-04-23T08:52:12.178Z,51.1070
2019-04-23T08:53:29.659Z,49.8070
2019-04-23T08:54:37.060Z,50.0908
2019-04-23T08:56:50.025Z,49.6101
2019-04-23T08:57:45.352Z,49.2638
2019-04-23T08:58:59.330Z,49.0379
2019-04-23T09:00:04.015Z,48.0949
2019-04-23T09:01:10.668Z,47.7668
2019-04-23T09:02:30.568Z,47.7836
2019-04-23T09:04:42.069Z,48.3894
2019-04-23T09:05:52.670Z,47.9454
2019-04-23T09:07:00.161Z,47.9728
2019-04-23T09:08:07.195Z,47.6234
2019-04-23T09:09:16.054Z,47.6692
2019-04-23T09:10:20.841Z,46.3096
2019-04-23T09:11:41.054Z,46.9139
2019-04-23T09:12:35.112Z,46.6773
2019-04-23T09:14:51.236Z,45.5268
2019-04-23T09:15:55.889Z,45.2110
2019-04-23T09:17:06.881Z,44.3183
2019-04-23T09:18:16.036Z,43.6286
2019-04-23T09:19:23.284Z,43.4043
2019-04-23T09:21:32.720Z,41.6739
2019-04-23T09:24:03.844Z,42.2263
2019-04-23T09:25:06.024Z,41.2940
2019-04-23T09:26:02.254Z,41.7868
2019-04-23T09:27:22.169Z,41.5732
2019-04-23T09:28:38.591Z,41.5396
2019-04-23T09:29:42.449Z,41.9471
2019-04-23T09:30:42.926Z,41.8708
2019-04-23T09:33:02.421Z,42.1530
2019-04-23T09:34:08.004Z,41.9516
2019-04-23T09:35:20.194Z,42.5437
2019-04-23T09:36:22.372Z,42.9099
2019-04-23T09:38:31.892Z,41.9074
2019-04-23T09:41:08.720Z,41.7868
2019-04-23T09:42:02.328Z,42.0432
2019-04-23T09:45:28.086Z,41.7411
2019-04-23T09:46:32.596Z,41.9471
2019-04-23T09:47:48.296Z,41.8647
2019-04-23T09:48:54.693Z,41.5549
2019-04-23T09:50:06.461Z,41.7472
2019-04-23T09:51:02.450Z,41.8189
2019-04-23T09:52:14.611Z,41.7960
2019-04-23T09:53:24.762Z,42.4247
2019-04-23T09:54:37.874Z,41.6281
2019-04-23T09:58:00.630Z,41.4435
2019-04-23T09:59:08.836Z,41.2650
2019-04-23T10:00:10.752Z,41.0407
2019-04-23T10:01:20.500Z,40.8484
2019-04-23T10:02:17.510Z,40.9995
2019-04-23T10:03:21.144Z,40.6973
2019-04-23T10:04:28.155Z,40.8179
2019-04-23T10:05:32.585Z,40.3052
2019-04-23T10:06:34.553Z,40.6394
2019-04-23T10:07:48.630Z,40.6149
2019-04-23T10:08:52.249Z,40.1221
2019-04-23T10:09:53.532Z,40.9949
2019-04-23T10:10:57.475Z,40.5920
2019-04-23T10:12:00.992Z,40.7080
2019-04-23T10:13:04.377Z,39.8047
2019-04-23T10:14:08.281Z,40.0519
2019-04-23T10:15:21.522Z,40.5920
2019-04-23T10:16:21.439Z,40.2625
2019-04-23T10:17:28.490Z,40.6653
2019-04-23T10:18:31.311Z,40.1663
2019-04-23T10:19:35.037Z,40.9995
2019-04-23T10:20:38.588Z,39.8184
2019-04-23T10:21:43.653Z,40.2579
2019-04-23T10:22:48.240Z,39.3942
2019-04-23T10:23:51.653Z,39.9008
2019-04-23T10:24:55.395Z,40.4608
2019-04-23T10:25:58.362Z,40.5158
2019-04-23T10:27:01.986Z,40.2640
2019-04-23T10:28:08.634Z,40.5158
2019-04-23T10:29:14.049Z,38.3780
2019-04-23T10:30:17.749Z,38.7579
2019-04-23T10:31:22.767Z,39.0906
2019-04-23T10:32:27.324Z,38.8663
2019-04-23T10:33:31.682Z,39.3927
2019-04-23T10:34:47.533Z,39.1974
2019-04-23T10:35:51.521Z,38.2483
2019-04-23T10:36:51.571Z,38.6572
2019-04-23T10:38:03.722Z,39.0372
2019-04-23T10:39:10.630Z,39.1546
2019-04-23T10:40:15.383Z,38.2589
2019-04-23T10:41:20.175Z,38.7716
2019-04-23T10:42:24.701Z,38.0209
2019-04-23T10:43:30.775Z,37.7920
2019-04-23T10:44:35.371Z,37.2320
2019-04-23T10:45:53.874Z,37.6501
2019-04-23T10:47:12.237Z,36.3165
2019-04-23T10:48:31.500Z,36.7422
2019-04-23T10:50:46.166Z,36.1730
2019-04-23T10:51:55.052Z,36.8063
2019-04-23T10:53:05.120Z,36.6171
2019-04-23T10:55:07.933Z,36.7727
2019-04-23T10:56:22.352Z,37.0794
2019-04-23T10:57:23.183Z,35.0988
2019-04-23T10:58:35.286Z,35.7977
2019-04-23T11:00:55.664Z,35.2132
2019-04-23T11:02:15.623Z,35.2316
2019-04-23T11:03:20.344Z,35.4650
2019-04-23T11:04:32.858Z,35.1293
2019-04-23T11:05:30.392Z,35.4223
2019-04-23T11:06:47.171Z,35.6710
2019-04-23T11:08:45.540Z,34.7860
2019-04-23T11:09:58.702Z,34.9615
2019-04-23T11:11:07.952Z,35.7656
2019-04-23T11:12:23.413Z,34.6639
2019-04-23T11:13:25.669Z,34.4305
2019-04-23T11:14:37.718Z,33.6431
2019-04-23T11:19:10.552Z,32.0912
2019-04-23T11:20:17.669Z,32.0272
2019-04-23T11:21:20.751Z,31.4305
2019-04-23T11:23:30.909Z,32.2271
2019-04-23T11:24:42.103Z,29.6880
2019-04-23T11:25:42.826Z,29.4942
2019-04-23T11:26:58.003Z,29.7978
2019-04-23T11:28:11.038Z,30.7820
2019-04-23T11:29:16.379Z,31.6594
2019-04-23T11:30:27.452Z,31.8990
2019-04-23T11:31:41.467Z,32.0760
2019-04-23T11:32:47.119Z,32.1218
2019-04-23T11:33:42.695Z,32.5078
2019-04-23T11:36:18.967Z,31.6228
2019-04-23T11:37:12.914Z,31.1147
2019-04-23T11:38:43.631Z,31.4870
2019-04-23T11:39:23.971Z,32.0302
2019-04-23T11:40:32.817Z,32.4620
2019-04-23T11:41:49.011Z,32.1736
2019-04-23T11:42:49.445Z,31.9203
2019-04-23T11:43:53.431Z,32.6268
2019-04-23T11:45:09.607Z,32.5444
2019-04-23T11:46:32.664Z,33.2998
2019-04-23T11:48:51.966Z,32.5170
2019-04-23T11:52:09.747Z,31.8471
2019-04-23T11:52:57.138Z,33.1991
2019-04-23T11:54:11.614Z,32.9793
2019-04-23T11:55:26.136Z,31.9158
2019-04-23T11:57:02.696Z,32.2469
2019-04-23T11:59:55.046Z,33.1792
2019-04-23T12:01:03.167Z,32.9641
2019-04-23T12:02:01.148Z,33.2677
2019-04-23T12:03:02.501Z,33.1075
2019-04-23T12:04:39.590Z,33.4920
2019-04-23T12:05:37.129Z,33.5042
2019-04-23T12:06:36.948Z,33.4218
2019-04-23T12:08:03.851Z,33.5103
2019-04-23T12:08:50.998Z,33.7881
2019-04-23T12:11:35.426Z,33.5836
2019-04-23T12:12:21.720Z,33.7285
2019-04-23T12:13:28.655Z,33.9712
2019-04-23T12:14:37.314Z,33.6065
2019-04-23T12:15:37.586Z,33.1060
2019-04-23T12:17:05.613Z,33.9956
2019-04-23T12:18:05.357Z,33.7926
2019-04-23T12:19:28.403Z,34.1314
2019-04-23T12:20:13.536Z,32.4254
2019-04-23T12:21:22.115Z,32.3934
2019-04-23T12:22:33.412Z,32.1859
2019-04-23T12:23:48.559Z,32.7855
2019-04-23T12:25:58.613Z,31.7510
2019-04-23T12:27:00.698Z,31.4687
2019-04-23T12:28:06.603Z,31.4046
2019-04-23T12:29:23.735Z,31.0872
2019-04-23T12:30:30.152Z,29.6559
2019-04-23T12:31:34.836Z,30.8278
2019-04-23T12:33:53.599Z,31.2154
2019-04-23T12:36:05.317Z,29.7475
2019-04-23T12:37:19.632Z,30.5577
2019-04-23T12:38:31.234Z,29.3889
2019-04-23T12:39:45.451Z,29.3706
2019-04-23T12:40:37.843Z,28.8960
2019-04-23T12:41:43.306Z,29.5140
2019-04-23T12:43:57.945Z,30.2556
2019-04-23T12:45:16.976Z,30.1686
2019-04-23T12:46:17.693Z,27.9622
2019-04-23T12:47:37.960Z,28.1086
2019-04-23T12:52:02.448Z,26.6987
2019-04-23T12:53:27.064Z,28.3558
2019-04-23T12:54:20.791Z,29.5033
2019-04-23T12:55:36.215Z,26.4591
2019-04-23T12:56:41.588Z,27.4342
2019-04-23T12:58:34.064Z,28.9647
2019-04-23T12:59:50.071Z,29.0196
2019-04-23T13:01:07.216Z,28.5481
2019-04-23T13:02:16.401Z,31.4534
2019-04-23T13:03:21.593Z,27.8294
2019-04-23T13:04:24.616Z,28.6488
2019-04-23T13:06:41.030Z,27.6493
2019-04-23T13:08:54.577Z,29.7292
2019-04-23T13:11:16.265Z,30.2770
2019-04-23T13:12:32.625Z,27.8477
2019-04-23T13:13:28.575Z,27.4632
2019-04-23T13:14:44.062Z,29.9626
2019-04-23T13:15:40.685Z,29.0776
2019-04-23T13:17:02.054Z,29.7246
2019-04-23T13:19:13.922Z,30.1442
2019-04-23T13:21:46.246Z,28.6625
2019-04-23T13:22:45.886Z,29.3400
2019-04-23T13:24:49.009Z,28.3192
2019-04-23T13:27:15.209Z,29.7887
2019-04-23T13:28:27.692Z,27.8233
2019-04-23T13:29:32.438Z,27.9881
2019-04-23T13:30:44.741Z,28.5878
2019-04-23T13:31:28.968Z,29.1096
2019-04-23T13:33:51.509Z,30.3685
2019-04-23T13:35:15.052Z,28.7221
2019-04-23T13:37:26.225Z,28.8441
2019-04-23T13:38:35.025Z,28.9784
2019-04-23T13:39:35.318Z,27.9988
2019-04-23T13:41:47.770Z,27.4708
2019-04-23T13:43:01.145Z,27.3671
2019-04-23T13:43:53.013Z,28.7343
2019-04-23T13:45:33.346Z,29.7749
2019-04-23T13:46:17.792Z,27.9805
2019-04-23T13:47:38.495Z,28.6427
2019-04-23T13:48:35.950Z,27.8508
2019-04-23T13:49:52.738Z,27.5685
2019-04-23T13:52:06.190Z,28.6168
2019-04-23T13:53:28.979Z,29.7597
2019-04-23T13:54:27.761Z,27.4434
2019-04-23T13:55:21.750Z,27.4403
2019-04-23T13:58:05.050Z,28.1300
2019-04-23T13:58:51.609Z,28.0659
2019-04-23T13:59:56.248Z,27.8065
2019-04-23T14:01:25.931Z,28.1804
2019-04-23T14:02:24.063Z,28.9448
2019-04-23T14:03:30.320Z,29.6742
2019-04-23T14:04:43.174Z,28.3497
2019-04-23T14:06:47.513Z,29.5186
2019-04-23T14:07:54.779Z,26.9947
2019-04-23T14:08:59.689Z,27.4540
2019-04-23T14:12:35.183Z,26.9764
2019-04-23T14:14:47.571Z,28.8762
2019-04-23T14:15:54.091Z,26.9642
2019-04-23T14:17:04.532Z,27.1611
2019-04-23T14:18:48.953Z,27.3426
2019-04-23T14:19:06.897Z,28.1758
2019-04-23T14:20:21.598Z,27.1519
2019-04-23T14:21:39.166Z,26.9917
2019-04-23T14:24:08.748Z,28.5756
2019-04-23T14:25:04.634Z,27.7226
2019-04-23T14:27:17.908Z,27.3396
2019-04-23T14:28:22.161Z,28.8457
2019-04-23T14:29:30.607Z,27.3121
2019-04-23T14:30:38.993Z,27.7409
2019-04-23T14:32:54.303Z,27.8737
2019-04-23T14:35:21.596Z,28.1956
2019-04-23T14:36:17.670Z,27.8004
2019-04-23T14:37:17.230Z,27.2740
2019-04-23T14:39:40.999Z,27.3854
2019-04-23T14:41:53.680Z,26.8223
2019-04-23T14:43:08.844Z,27.5212
2019-04-23T14:44:11.055Z,27.8004
2019-04-23T14:45:29.692Z,27.8233
2019-04-23T14:47:38.132Z,28.2094
2019-04-23T14:48:47.975Z,28.5481
2019-04-23T14:49:59.431Z,29.3980
2019-04-23T14:50:56.913Z,29.5232
2019-04-23T14:52:09.281Z,29.4224
2019-04-23T14:54:35.831Z,29.0044
2019-04-23T14:56:38.378Z,28.0247
2019-04-23T14:57:52.840Z,29.0135
2019-04-23T14:59:04.720Z,27.8279
2019-04-23T15:00:03.385Z,28.1407
2019-04-23T15:01:22.236Z,28.5435
2019-04-23T15:02:22.928Z,28.3879
2019-04-23T15:03:32.541Z,28.3833
2019-04-23T15:04:34.034Z,28.6152
2019-04-23T15:05:52.767Z,28.3818
2019-04-23T15:08:02.145Z,28.0720
2019-04-23T15:10:18.563Z,28.6290
2019-04-23T15:13:36.849Z,28.7312
2019-04-23T15:14:56.307Z,28.7404
2019-04-23T15:16:03.128Z,29.0959
2019-04-23T15:17:00.461Z,27.9347
2019-04-23T15:18:14.109Z,28.1437
2019-04-23T15:20:23.115Z,28.2124
2019-04-23T15:21:45.273Z,30.3243
2019-04-23T15:22:54.453Z,29.8024
2019-04-23T15:25:09.377Z,27.6448
2019-04-23T15:26:49.495Z,28.0400
2019-04-23T15:28:07.604Z,27.8325
2019-04-23T15:29:12.885Z,28.2994
2019-04-23T15:30:35.555Z,28.6122
2019-04-23T15:31:52.422Z,28.7221
2019-04-23T15:33:04.207Z,28.2872
2019-04-23T15:34:09.288Z,28.9372
2019-04-23T15:35:23.437Z,27.6036
2019-04-23T15:38:55.857Z,28.2902
2019-04-23T15:40:53.352Z,28.6122
2019-04-23T15:43:17.236Z,28.4001
2019-04-23T15:45:21.007Z,28.5283
2019-04-23T15:46:32.684Z,29.0684
2019-04-23T15:47:40.489Z,28.7846
2019-04-23T15:48:58.125Z,28.9128
2019-04-23T15:50:03.598Z,28.8319
2019-04-23T15:51:04.378Z,28.6809
2019-04-23T15:53:24.915Z,28.9174
2019-04-23T15:54:25.415Z,29.2805
2019-04-23T15:55:28.209Z,29.2668
2019-04-23T15:56:41.017Z,29.0593
2019-04-23T15:59:58.702Z,29.3248
2019-04-23T16:01:15.557Z,29.0837
2019-04-23T16:01:52.332Z,28.9143
2019-04-23T16:02:55.306Z,29.3767
2019-04-23T16:03:59.127Z,28.7343
2019-04-23T16:05:03.652Z,28.6122
2019-04-23T16:06:10.316Z,28.8579
2019-04-23T16:07:32.581Z,28.4520
2019-04-23T16:08:58.945Z,28.7984
2019-04-23T16:10:04.242Z,28.5466
2019-04-23T16:11:15.708Z,28.7861
2019-04-23T16:12:03.419Z,29.2103
2019-04-23T16:13:31.145Z,29.2714
2019-04-23T16:14:35.362Z,28.7266
2019-04-23T16:15:45.402Z,28.8228
2019-04-23T16:18:06.552Z,28.4230
2019-04-23T16:19:07.620Z,29.2531
2019-04-23T16:20:22.193Z,28.3955
2019-04-23T16:22:24.861Z,28.5435
2019-04-23T16:23:38.270Z,28.7068
2019-04-23T16:24:52.254Z,28.6015
2019-04-23T16:25:49.797Z,28.9998
2019-04-23T16:27:04.435Z,28.5145
2019-04-23T16:28:11.543Z,28.5573
2019-04-23T16:30:36.811Z,29.2943
2019-04-23T16:31:38.046Z,29.0639
2019-04-23T16:32:38.046Z,29.1371
2019-04-23T16:33:47.947Z,30.5196
2019-04-23T16:35:06.757Z,29.0730
2019-04-23T16:36:19.208Z,29.2576
2019-04-23T16:37:15.436Z,29.1142
2019-04-23T16:39:24.161Z,29.9077
2019-04-23T16:41:51.649Z,31.0018
2019-04-23T16:42:56.684Z,29.4179
2019-04-23T16:44:09.506Z,29.9107
2019-04-23T16:45:14.976Z,29.2882
2019-04-23T16:46:21.340Z,29.3385
2019-04-23T16:47:24.223Z,29.3889
2019-04-23T16:48:44.093Z,29.2027
2019-04-23T16:49:48.020Z,29.6544
2019-04-23T16:51:54.184Z,30.7530
2019-04-23T16:53:11.568Z,28.3009
2019-04-23T16:54:14.124Z,28.4474
2019-04-23T16:55:19.963Z,28.7541
2019-04-23T17:00:08.190Z,28.6900
2019-04-23T17:01:07.262Z,28.9693
2019-04-23T17:02:17.617Z,28.4459
2019-04-23T17:03:28.954Z,28.8273
2019-04-23T17:04:24.310Z,28.4916
2019-04-23T17:05:33.327Z,29.3217
2019-04-23T17:06:35.812Z,28.2872
2019-04-23T17:08:08.365Z,29.3202